Time;durP1;ratioP1;P1;durP2;ratioP2;P2;SDS_P1;SDS_P2;PMS_P1;PMS_P2;Temp;Humidity;BMP_temperature;BMP_pressure;BME280_temperature;BME280_humidity;BME280_pressure;Samples;Min_cycle;Max_cycle;Signal;HPM_P1;HPM_P2
2023/06/03 00:01:40;;;;;;;8.83;5.00;;;12.90;80.00;;;;;;5012701;28;20507;-68
2023/06/03 00:04:11;;;;;;;7.63;4.90;;;12.90;79.70;;;;;;5012435;28;20503;-67
2023/06/03 00:06:39;;;;;;;8.53;5.20;;;13.00;79.10;;;;;;5012782;28;20544;-67
2023/06/03 00:09:09;;;;;;;9.03;5.57;;;13.00;79.10;;;;;;5012591;28;20469;-68
2023/06/03 00:11:37;;;;;;;8.23;5.00;;;13.00;83.60;;;;;;5012492;28;20476;-69
2023/06/03 00:14:06;;;;;;;8.07;4.50;;;12.90;81.90;;;;;;5012226;28;20472;-67
2023/06/03 00:16:33;;;;;;;7.20;4.30;;;12.80;81.30;;;;;;5012344;28;20453;-69
2023/06/03 00:19:03;;;;;;;6.77;4.37;;;12.70;81.40;;;;;;5012291;28;20461;-69
2023/06/03 00:21:33;;;;;;;11.27;5.37;;;12.80;80.90;;;;;;5012346;28;20445;-68
2023/06/03 00:24:01;;;;;;;6.73;4.80;;;12.80;81.00;;;;;;5012031;28;20531;-69
2023/06/03 00:26:29;;;;;;;11.13;5.20;;;12.80;81.40;;;;;;5012466;28;20445;-69
2023/06/03 00:28:57;;;;;;;6.37;4.83;;;12.80;80.70;;;;;;5012062;28;20466;-69
2023/06/03 00:31:25;;;;;;;10.93;4.73;;;12.80;80.60;;;;;;5011968;28;20455;-69
2023/06/03 00:33:53;;;;;;;9.07;5.70;;;12.90;80.70;;;;;;5011593;28;20995;-68
2023/06/03 00:36:22;;;;;;;11.07;5.27;;;12.80;80.70;;;;;;5012066;28;20481;-68
2023/06/03 00:38:50;;;;;;;11.77;4.70;;;12.80;84.60;;;;;;5011990;28;20468;-69
2023/06/03 00:41:19;;;;;;;7.57;5.27;;;12.80;81.90;;;;;;5011997;28;20511;-68
2023/06/03 00:43:47;;;;;;;9.70;5.50;;;12.70;82.10;;;;;;5011393;28;20452;-69
2023/06/03 00:46:16;;;;;;;13.17;6.30;;;12.70;82.10;;;;;;5011658;28;20527;-68
2023/06/03 00:48:44;;;;;;;6.67;4.93;;;12.70;82.30;;;;;;5011745;28;20475;-69
2023/06/03 00:51:13;;;;;;;10.43;5.43;;;12.60;83.00;;;;;;5011844;28;20449;-69
2023/06/03 00:53:43;;;;;;;8.13;4.60;;;12.50;83.60;;;;;;5011148;28;20487;-69
2023/06/03 00:56:11;;;;;;;10.47;5.10;;;12.40;88.30;;;;;;5011567;28;20448;-69
2023/06/03 00:58:39;;;;;;;7.90;6.17;;;12.30;87.70;;;;;;5011463;28;20947;-69
2023/06/03 01:01:08;;;;;;;6.83;4.73;;;12.10;87.90;;;;;;5011719;28;20440;-68
2023/06/03 01:03:37;;;;;;;7.33;5.70;;;12.00;91.60;;;;;;5011305;28;20808;-68
2023/06/03 01:06:16;;;;;;;7.50;5.27;;;11.90;91.10;;;;;;5011505;28;20458;-68
2023/06/03 01:08:54;;;;;;;8.50;5.13;;;11.90;91.60;;;;;;5011204;28;20530;-67
2023/06/03 01:11:30;;;;;;;10.13;5.53;;;11.90;91.60;;;;;;5011593;28;20497;-68
2023/06/03 01:14:08;;;;;;;10.70;4.97;;;11.80;90.70;;;;;;5010953;28;20479;-68
2023/06/03 01:16:41;;;;;;;9.43;5.30;;;11.70;91.30;;;;;;5011769;28;20483;-68
2023/06/03 01:19:17;;;;;;;8.37;4.73;;;11.70;92.80;;;;;;5011557;28;20559;-68
2023/06/03 01:21:47;;;;;;;10.70;4.83;;;11.50;93.90;;;;;;5011343;28;20454;-68
2023/06/03 01:24:20;;;;;;;7.37;5.17;;;11.30;92.80;;;;;;5011306;28;20442;-70
2023/06/03 01:26:48;;;;;;;9.23;5.57;;;11.40;92.30;;;;;;5011132;28;20523;-67
2023/06/03 01:29:16;;;;;;;8.87;4.67;;;11.50;91.80;;;;;;5011363;28;20536;-67
2023/06/03 01:31:44;;;;;;;9.70;5.47;;;11.60;91.90;;;;;;5011311;28;21015;-68
2023/06/03 01:34:12;;;;;;;11.90;5.73;;;11.60;91.60;;;;;;5010693;28;20490;-68
2023/06/03 01:36:41;;;;;;;9.60;5.33;;;11.50;94.50;;;;;;5010964;28;20461;-67
2023/06/03 01:39:11;;;;;;;6.80;5.60;;;11.40;95.20;;;;;;5011129;28;20465;-67
2023/06/03 01:41:42;;;;;;;11.53;7.80;;;11.30;94.80;;;;;;5010913;28;20454;-67
2023/06/03 01:44:10;;;;;;;9.70;4.90;;;11.30;92.90;;;;;;5010559;28;20495;-68
2023/06/03 01:46:38;;;;;;;13.87;5.60;;;11.40;92.60;;;;;;5010820;28;20561;-67
2023/06/03 01:49:07;;;;;;;10.00;5.17;;;11.40;92.40;;;;;;5011016;28;20516;-67
2023/06/03 01:51:36;;;;;;;12.43;6.00;;;11.50;92.30;;;;;;5010904;28;20553;-67
2023/06/03 01:54:04;;;;;;;9.23;5.30;;;11.50;92.30;;;;;;5010694;28;20517;-68
2023/06/03 01:56:32;;;;;;;8.93;5.17;;;11.40;93.20;;;;;;5010963;28;20447;-68
2023/06/03 01:59:02;;;;;;;8.70;5.43;;;11.40;92.90;;;;;;5010791;28;20550;-68
2023/06/03 02:01:30;;;;;;;11.40;5.60;;;11.30;95.20;;;;;;5010598;28;20449;-67
2023/06/03 02:03:58;;;;;;;13.67;5.83;;;11.20;95.30;;;;;;5010089;28;20451;-67
2023/06/03 02:06:26;;;;;;;9.17;6.07;;;11.10;95.50;;;;;;5010792;28;20442;-68
2023/06/03 02:08:55;;;;;;;8.73;6.20;;;11.00;96.20;;;;;;5010515;28;20463;-68
2023/06/03 02:11:22;;;;;;;8.43;5.30;;;10.80;96.70;;;;;;5010328;28;20449;-68
2023/06/03 02:13:50;;;;;;;8.60;6.00;;;10.70;96.30;;;;;;5010457;28;20486;-67
2023/06/03 02:16:20;;;;;;;11.63;6.80;;;10.70;96.20;;;;;;5010788;28;20470;-67
2023/06/03 02:18:48;;;;;;;8.50;5.33;;;10.70;96.90;;;;;;5010726;28;20460;-66
2023/06/03 02:21:16;;;;;;;8.90;6.57;;;10.70;96.50;;;;;;5010644;28;20934;-67
2023/06/03 02:23:44;;;;;;;11.80;5.93;;;10.60;97.20;;;;;;5009879;28;21058;-68
2023/06/03 02:26:13;;;;;;;8.27;5.33;;;10.40;97.40;;;;;;5010439;28;20481;-67
2023/06/03 02:28:41;;;;;;;11.77;7.20;;;10.40;97.90;;;;;;5010350;28;20469;-66
2023/06/03 02:31:10;;;;;;;7.60;5.90;;;10.30;97.80;;;;;;5010329;28;20469;-68
2023/06/03 02:33:39;;;;;;;13.13;5.70;;;10.50;96.70;;;;;;5009786;28;20477;-67
2023/06/03 02:36:08;;;;;;;8.77;4.70;;;10.70;95.80;;;;;;5010122;28;20532;-67
2023/06/03 02:38:36;;;;;;;9.97;5.20;;;11.00;95.10;;;;;;5009027;28;20472;-67
2023/06/03 02:41:04;;;;;;;12.60;5.50;;;11.00;95.90;;;;;;5010201;28;20445;-67
2023/06/03 02:43:33;;;;;;;10.43;5.80;;;11.00;94.70;;;;;;5009726;28;20434;-68
2023/06/03 02:46:01;;;;;;;6.90;5.10;;;11.10;94.50;;;;;;5010072;28;20520;-67
2023/06/03 02:48:29;;;;;;;9.43;5.73;;;11.10;94.30;;;;;;5009907;28;20819;-68
2023/06/03 02:50:58;;;;;;;10.90;5.63;;;11.00;96.20;;;;;;5009884;28;20539;-68
2023/06/03 02:53:27;;;;;;;11.23;7.27;;;11.00;95.10;;;;;;5009331;28;20508;-68
2023/06/03 02:55:55;;;;;;;10.87;5.27;;;10.80;97.20;;;;;;5009992;28;20529;-68
2023/06/03 02:58:23;;;;;;;10.50;5.90;;;10.70;97.30;;;;;;5009887;28;20439;-68
2023/06/03 03:00:50;;;;;;;9.37;5.30;;;10.60;97.80;;;;;;5010110;28;20968;-68
2023/06/03 03:03:19;;;;;;;10.07;6.03;;;10.50;97.80;;;;;;5009683;28;20438;-67
2023/06/03 03:05:48;;;;;;;13.60;6.97;;;10.50;96.60;;;;;;5010122;28;20450;-68
2023/06/03 03:08:17;;;;;;;8.50;5.53;;;10.40;97.80;;;;;;5009733;28;20452;-68
2023/06/03 03:10:45;;;;;;;10.93;5.87;;;10.50;97.10;;;;;;5009752;28;20892;-67
2023/06/03 03:13:13;;;;;;;8.40;5.80;;;10.50;96.50;;;;;;5009363;28;20481;-67
2023/06/03 03:15:41;;;;;;;9.60;5.93;;;10.60;96.40;;;;;;5009684;28;20442;-68
2023/06/03 03:18:09;;;;;;;8.90;5.60;;;10.70;95.90;;;;;;5009506;28;20445;-67
2023/06/03 03:20:37;;;;;;;13.40;5.60;;;10.70;96.00;;;;;;5009731;28;20495;-67
2023/06/03 03:23:06;;;;;;;9.67;6.50;;;10.80;95.50;;;;;;5009235;28;21082;-67
2023/06/03 03:25:35;;;;;;;9.47;7.43;;;10.80;96.40;;;;;;5009496;28;20988;-68
2023/06/03 03:28:03;;;;;;;7.17;5.70;;;10.70;97.50;;;;;;5009633;28;20441;-68
2023/06/03 03:30:31;;;;;;;5.77;5.00;;;10.60;97.70;;;;;;5009687;28;20468;-67
2023/06/03 03:33:00;;;;;;;8.13;5.10;;;10.50;97.60;;;;;;5009552;28;20445;-68
2023/06/03 03:35:28;;;;;;;10.30;6.23;;;10.50;98.20;;;;;;5009452;28;21007;-67
2023/06/03 03:38:02;;;;;;;9.53;5.77;;;10.50;96.50;;;;;;5009576;28;20450;-69
2023/06/03 03:40:36;;;;;;;12.63;6.63;;;10.50;97.80;;;;;;5009455;28;20470;-69
2023/06/03 03:43:04;;;;;;;7.40;5.60;;;10.50;96.40;;;;;;5009114;28;20818;-68
2023/06/03 03:45:37;;;;;;;11.50;5.57;;;10.60;96.20;;;;;;5009607;28;20529;-68
2023/06/03 03:48:06;;;;;;;9.07;5.93;;;10.70;96.00;;;;;;5009503;28;20441;-68
2023/06/03 03:50:43;;;;;;;8.40;5.37;;;10.70;97.30;;;;;;5012116;28;20835;-68
2023/06/03 03:53:13;;;;;;;11.67;6.13;;;10.70;97.40;;;;;;5012613;28;20430;-68
2023/06/03 03:55:45;;;;;;;10.50;6.67;;;10.60;96.70;;;;;;5012589;28;20442;-68
2023/06/03 03:58:29;;;;;;;7.90;5.17;;;10.60;97.60;;;;;;5012750;28;20545;-68
2023/06/03 04:00:59;;;;;;;10.80;6.03;;;10.60;98.00;;;;;;5011584;28;20483;-69
2023/06/03 04:03:30;;;;;;;7.90;6.50;;;10.60;97.00;;;;;;5012481;28;20437;-68
2023/06/03 04:05:58;;;;;;;7.17;6.40;;;10.60;97.20;;;;;;5012628;28;20448;-67
2023/06/03 04:08:43;;;;;;;11.40;5.93;;;10.70;97.40;;;;;;5012634;28;20969;-68
2023/06/03 04:11:20;;;;;;;9.20;6.30;;;10.70;97.60;;;;;;5012583;28;20441;-68
2023/06/03 04:13:49;;;;;;;8.80;5.87;;;10.60;98.40;;;;;;5012391;28;20480;-68
2023/06/03 04:16:51;;;;;;;11.80;6.03;;;10.60;98.80;;;;;;5012802;28;21264;-68
2023/06/03 04:19:30;;;;;;;7.90;6.87;;;10.60;98.50;;;;;;5012807;28;20517;-68
2023/06/03 04:21:59;;;;;;;12.67;8.17;;;10.60;98.80;;;;;;5012419;28;20498;-67
2023/06/03 04:24:27;;;;;;;8.90;6.80;;;10.70;98.80;;;;;;5012031;28;20465;-68
2023/06/03 04:26:57;;;;;;;12.50;7.97;;;10.70;99.60;;;;;;5012105;28;20460;-68
2023/06/03 04:29:25;;;;;;;7.83;6.27;;;10.80;99.70;;;;;;5012451;28;20464;-68
2023/06/03 04:31:53;;;;;;;9.73;7.30;;;10.90;99.20;;;;;;5012356;28;20858;-68
2023/06/03 04:34:21;;;;;;;11.63;6.43;;;11.00;99.70;;;;;;5011776;28;20471;-68
2023/06/03 04:36:49;;;;;;;11.37;6.70;;;11.10;99.20;;;;;;5011974;28;20462;-69
2023/06/03 04:39:17;;;;;;;7.90;6.80;;;11.20;99.00;;;;;;5011974;28;20458;-68
2023/06/03 04:41:47;;;;;;;12.00;6.37;;;11.30;99.00;;;;;;5012352;28;20477;-68
2023/06/03 04:44:16;;;;;;;11.00;6.73;;;11.40;99.30;;;;;;5011672;28;20447;-68
2023/06/03 04:46:45;;;;;;;15.67;6.67;;;11.30;98.50;;;;;;5011750;28;20446;-69
2023/06/03 04:49:14;;;;;;;11.60;7.07;;;11.30;98.40;;;;;;5011602;28;21015;-68
2023/06/03 04:51:42;;;;;;;12.03;6.60;;;11.30;98.40;;;;;;5011699;28;20442;-69
2023/06/03 04:54:10;;;;;;;8.50;6.53;;;11.50;98.70;;;;;;5011162;28;20483;-68
2023/06/03 04:56:38;;;;;;;10.90;6.17;;;11.50;98.30;;;;;;5011739;28;20800;-69
2023/06/03 04:59:06;;;;;;;11.70;6.77;;;11.60;98.30;;;;;;5011612;28;20471;-69
2023/06/03 05:01:36;;;;;;;9.40;6.43;;;11.70;98.20;;;;;;5010802;28;20452;-68
2023/06/03 05:04:08;;;;;;;10.53;6.43;;;11.80;98.00;;;;;;5011096;28;20533;-68
2023/06/03 05:06:36;;;;;;;8.23;7.43;;;11.90;97.90;;;;;;5011412;28;20445;-68
2023/06/03 05:09:05;;;;;;;9.70;5.93;;;12.00;98.20;;;;;;5011307;28;20526;-69
2023/06/03 05:11:33;;;;;;;10.70;7.10;;;12.10;98.20;;;;;;5011580;28;20441;-68
2023/06/03 05:14:01;;;;;;;9.73;6.23;;;12.10;98.80;;;;;;5010970;28;20445;-68
2023/06/03 05:16:29;;;;;;;6.33;5.50;;;12.20;98.30;;;;;;5011249;28;20449;-68
2023/06/03 05:18:58;;;;;;;13.93;6.33;;;12.30;97.60;;;;;;5011076;28;20851;-69
2023/06/03 05:21:26;;;;;;;10.07;6.27;;;12.50;96.80;;;;;;5011455;28;20833;-68
2023/06/03 05:23:54;;;;;;;7.73;5.70;;;12.60;96.40;;;;;;5010661;28;20450;-68
2023/06/03 05:26:22;;;;;;;7.63;6.07;;;12.80;95.20;;;;;;5011143;28;20989;-68
2023/06/03 05:28:50;;;;;;;7.83;4.97;;;13.00;95.40;;;;;;5011115;28;20469;-69
2023/06/03 05:31:18;;;;;;;7.93;6.30;;;13.00;95.10;;;;;;5010899;28;20938;-68
2023/06/03 05:33:46;;;;;;;11.60;5.87;;;13.10;95.10;;;;;;5010473;28;20465;-69
2023/06/03 05:36:15;;;;;;;7.50;5.73;;;13.10;94.00;;;;;;5010961;28;20531;-69
2023/06/03 05:38:43;;;;;;;6.00;4.87;;;13.30;93.60;;;;;;5010985;28;20497;-68
2023/06/03 05:41:11;;;;;;;13.60;6.37;;;13.40;93.70;;;;;;5010838;28;20481;-69
2023/06/03 05:43:40;;;;;;;9.30;5.90;;;13.50;93.00;;;;;;5010556;28;20453;-68
2023/06/03 05:46:08;;;;;;;12.97;6.60;;;13.60;91.10;;;;;;5010781;28;21066;-68
2023/06/03 05:48:36;;;;;;;10.63;5.10;;;13.80;90.10;;;;;;5011191;28;20477;-67
2023/06/03 05:51:05;;;;;;;10.03;5.50;;;13.90;89.50;;;;;;5011315;28;20527;-69
2023/06/03 05:53:43;;;;;;;8.30;6.00;;;14.00;90.00;;;;;;5010569;28;20446;-68
2023/06/03 05:56:11;;;;;;;13.30;6.60;;;14.10;88.30;;;;;;5010853;28;20497;-68
2023/06/03 05:58:40;;;;;;;10.27;6.43;;;14.10;87.60;;;;;;5010960;28;20465;-68
2023/06/03 06:01:08;;;;;;;6.70;5.23;;;14.20;87.60;;;;;;5010335;28;20455;-68
2023/06/03 06:03:36;;;;;;;8.93;5.57;;;14.30;86.00;;;;;;5010358;28;20852;-68
2023/06/03 06:06:04;;;;;;;8.33;6.67;;;14.40;86.00;;;;;;5010530;28;20815;-68
2023/06/03 06:08:32;;;;;;;9.80;5.73;;;14.50;85.40;;;;;;5010398;28;20465;-68
2023/06/03 06:11:01;;;;;;;11.53;7.40;;;14.60;86.30;;;;;;5010191;28;21042;-68
2023/06/03 06:13:30;;;;;;;9.73;6.03;;;14.70;84.40;;;;;;5010155;28;20488;-67
2023/06/03 06:15:59;;;;;;;8.73;6.00;;;14.80;85.00;;;;;;5010067;28;20485;-68
2023/06/03 06:18:29;;;;;;;8.47;5.70;;;14.80;83.60;;;;;;5010120;28;20466;-67
2023/06/03 06:20:57;;;;;;;7.17;6.27;;;14.90;83.80;;;;;;5010091;28;20446;-67
2023/06/03 06:23:25;;;;;;;7.40;4.93;;;15.00;83.40;;;;;;5010076;28;20454;-68
2023/06/03 06:25:55;;;;;;;9.83;5.60;;;15.10;81.80;;;;;;5010489;28;20434;-67
2023/06/03 06:28:26;;;;;;;5.50;4.87;;;15.10;78.80;;;;;;5010201;28;20470;-67
2023/06/03 06:30:56;;;;;;;7.53;5.87;;;15.10;83.50;;;;;;5010152;28;20452;-67
2023/06/03 06:33:24;;;;;;;7.70;6.00;;;15.20;83.00;;;;;;5010133;28;20870;-68
2023/06/03 06:35:52;;;;;;;8.40;4.97;;;15.30;82.20;;;;;;5010313;28;20898;-68
2023/06/03 06:38:20;;;;;;;8.43;5.40;;;15.40;80.20;;;;;;5010235;28;20550;-68
2023/06/03 06:40:51;;;;;;;11.03;5.33;;;15.50;80.60;;;;;;5010604;28;20453;-67
2023/06/03 06:43:25;;;;;;;8.00;5.47;;;15.60;77.60;;;;;;5009944;28;20550;-68
2023/06/03 06:45:56;;;;;;;9.30;5.63;;;15.60;78.30;;;;;;5010161;28;20494;-68
2023/06/03 06:48:24;;;;;;;7.53;5.53;;;15.70;79.20;;;;;;5009752;28;20500;-68
2023/06/03 06:50:53;;;;;;;12.07;5.47;;;15.90;79.50;;;;;;5009864;28;20548;-68
2023/06/03 06:53:23;;;;;;;5.97;5.40;;;16.00;76.70;;;;;;5009710;28;20496;-68
2023/06/03 06:55:53;;;;;;;13.07;6.37;;;16.10;77.80;;;;;;5010055;28;20516;-67
2023/06/03 06:58:22;;;;;;;13.93;6.20;;;16.10;76.80;;;;;;5009981;28;20532;-68
2023/06/03 07:00:50;;;;;;;6.37;5.67;;;16.20;74.40;;;;;;5010004;28;20448;-67
2023/06/03 07:03:20;;;;;;;13.10;7.10;;;16.20;75.20;;;;;;5009505;28;20459;-68
2023/06/03 07:05:52;;;;;;;10.70;4.50;;;16.20;74.80;;;;;;5010015;28;20440;-68
2023/06/03 07:08:22;;;;;;;8.47;6.87;;;16.30;76.40;;;;;;5009736;28;20484;-68
2023/06/03 07:10:50;;;;;;;8.67;5.07;;;16.40;74.80;;;;;;5009897;28;20452;-68
2023/06/03 07:13:18;;;;;;;8.73;5.63;;;16.50;72.90;;;;;;5009621;28;20453;-67
2023/06/03 07:15:46;;;;;;;7.50;4.50;;;16.50;73.70;;;;;;5009594;28;20517;-67
2023/06/03 07:18:14;;;;;;;6.93;4.90;;;16.80;73.50;;;;;;5009767;28;20515;-67
2023/06/03 07:20:45;;;;;;;5.90;5.37;;;16.80;72.00;;;;;;5009593;28;20448;-67
2023/06/03 07:23:14;;;;;;;8.93;5.43;;;16.90;71.20;;;;;;5009548;28;20461;-67
2023/06/03 07:25:44;;;;;;;9.00;4.93;;;17.00;72.30;;;;;;5012612;28;20494;-68
2023/06/03 07:28:14;;;;;;;7.13;5.70;;;17.20;71.70;;;;;;5013244;28;20453;-68
2023/06/03 07:30:43;;;;;;;7.10;5.67;;;17.40;71.40;;;;;;5013493;28;20442;-67
2023/06/03 07:33:22;;;;;;;8.10;5.50;;;17.50;68.00;;;;;;5013048;28;20496;-67
2023/06/03 07:35:53;;;;;;;8.57;6.07;;;17.50;68.70;;;;;;5013328;28;21073;-68
2023/06/03 07:38:47;;;;;;;7.27;5.30;;;17.70;69.20;;;;;;5013370;28;20829;-68
2023/06/03 07:41:28;;;;;;;6.80;5.30;;;17.80;67.80;;;;;;5013434;28;20476;-68
2023/06/03 07:43:58;;;;;;;9.17;5.73;;;17.90;70.40;;;;;;5013227;28;20819;-68
2023/06/03 07:46:38;;;;;;;7.50;5.87;;;18.10;69.90;;;;;;5013469;28;20442;-68
2023/06/03 07:49:09;;;;;;;14.80;6.73;;;18.10;67.40;;;;;;5013290;28;20520;-68
2023/06/03 07:51:40;;;;;;;9.67;4.83;;;18.20;68.90;;;;;;5013128;28;20446;-68
2023/06/03 07:54:10;;;;;;;5.83;5.23;;;18.40;66.00;;;;;;5013209;28;20503;-68
2023/06/03 07:56:38;;;;;;;6.70;5.03;;;18.50;65.10;;;;;;5013221;28;20513;-68
2023/06/03 07:59:09;;;;;;;6.27;5.10;;;18.60;67.10;;;;;;5013114;28;20971;-69
2023/06/03 08:01:37;;;;;;;8.05;5.53;;;18.80;64.60;;;;;;5012878;28;20435;-69
2023/06/03 08:04:12;;;;;;;7.83;5.03;;;18.90;65.90;;;;;;5013127;28;20252;-68
2023/06/03 08:06:46;;;;;;;9.50;5.60;;;19.00;66.00;;;;;;5013107;28;20445;-69
2023/06/03 08:09:25;;;;;;;6.83;5.70;;;19.10;65.50;;;;;;5013091;28;20567;-69
2023/06/03 08:11:53;;;;;;;8.23;5.60;;;19.20;63.50;;;;;;5013150;28;20544;-69
2023/06/03 08:14:21;;;;;;;7.67;6.17;;;19.40;65.00;;;;;;5012783;28;20496;-69
2023/06/03 08:16:50;;;;;;;9.93;6.40;;;19.60;63.00;;;;;;5012626;28;21046;-69
2023/06/03 08:19:18;;;;;;;9.93;5.80;;;19.80;61.30;;;;;;5012787;28;20465;-69
2023/06/03 08:21:50;;;;;;;8.67;6.07;;;19.90;60.70;;;;;;5012577;28;20442;-68
2023/06/03 08:24:18;;;;;;;10.63;6.00;;;19.80;62.20;;;;;;5012609;28;20450;-69
2023/06/03 08:26:46;;;;;;;6.83;6.03;;;20.00;60.40;;;;;;5012736;28;20450;-68
2023/06/03 08:29:14;;;;;;;7.07;5.80;;;20.10;60.50;;;;;;5012408;28;20545;-68
2023/06/03 08:31:42;;;;;;;5.87;5.23;;;20.20;60.30;;;;;;5012249;28;20496;-69
2023/06/03 08:34:10;;;;;;;7.37;5.60;;;20.30;59.60;;;;;;5012032;28;20452;-67
2023/06/03 08:36:39;;;;;;;10.63;5.73;;;20.50;58.00;;;;;;5010959;28;20477;-68
2023/06/03 08:39:08;;;;;;;6.40;5.33;;;20.50;58.40;;;;;;5012005;28;20468;-69
2023/06/03 08:41:39;;;;;;;6.57;5.63;;;20.50;60.30;;;;;;5012305;28;20442;-67
2023/06/03 08:44:14;;;;;;;10.40;6.10;;;20.70;60.20;;;;;;5012130;28;20461;-68
2023/06/03 08:46:47;;;;;;;6.83;5.70;;;20.70;58.70;;;;;;5012004;28;20440;-66
2023/06/03 08:49:23;;;;;;;7.70;5.07;;;20.80;58.00;;;;;;5011775;28;20848;-68
2023/06/03 08:51:55;;;;;;;7.83;5.50;;;20.80;59.80;;;;;;5012074;28;20469;-67
2023/06/03 08:54:31;;;;;;;6.77;6.17;;;21.00;58.80;;;;;;5011869;28;20517;-67
2023/06/03 08:57:06;;;;;;;6.33;5.73;;;21.30;58.50;;;;;;5011832;28;20482;-68
2023/06/03 08:59:38;;;;;;;9.90;6.03;;;21.30;56.80;;;;;;5011946;28;20838;-67
2023/06/03 09:02:06;;;;;;;9.00;5.70;;;21.40;57.10;;;;;;5011755;28;20447;-68
2023/06/03 09:04:35;;;;;;;8.23;6.03;;;21.50;58.60;;;;;;5011468;28;20441;-67
2023/06/03 09:07:04;;;;;;;9.50;6.10;;;21.60;56.30;;;;;;5011830;28;20471;-67
2023/06/03 09:09:35;;;;;;;9.30;6.17;;;21.60;56.80;;;;;;5011664;28;20552;-67
2023/06/03 09:12:05;;;;;;;6.83;5.60;;;21.40;56.10;;;;;;5011568;28;20445;-68
2023/06/03 09:14:34;;;;;;;8.63;7.40;;;21.60;57.40;;;;;;5011374;28;20446;-68
2023/06/03 09:17:02;;;;;;;8.13;7.17;;;21.90;55.50;;;;;;5011563;28;20477;-68
2023/06/03 09:19:31;;;;;;;11.87;6.70;;;21.80;54.80;;;;;;5011373;28;20880;-69
2023/06/03 09:22:01;;;;;;;12.70;6.23;;;21.80;55.20;;;;;;5011398;28;20532;-67
2023/06/03 09:24:29;;;;;;;7.50;6.57;;;21.90;58.10;;;;;;5010991;28;20443;-67
2023/06/03 09:26:59;;;;;;;6.50;5.73;;;22.00;57.70;;;;;;5011025;28;20446;-67
2023/06/03 09:29:26;;;;;;;10.17;6.70;;;22.20;59.00;;;;;;5010879;28;20976;-68
2023/06/03 09:31:56;;;;;;;9.30;6.30;;;22.60;56.50;;;;;;5011108;28;21284;-68
2023/06/03 09:34:24;;;;;;;8.93;6.53;;;22.90;57.30;;;;;;5010993;28;20826;-67
2023/06/03 09:36:52;;;;;;;8.10;6.57;;;23.20;55.60;;;;;;5011023;28;20477;-68
2023/06/03 09:39:33;;;;;;;7.87;6.50;;;23.20;54.50;;;;;;5010808;28;20936;-68
2023/06/03 09:42:03;;;;;;;8.37;6.30;;;22.80;55.40;;;;;;5011118;28;20438;-68
2023/06/03 09:44:42;;;;;;;8.57;6.20;;;22.50;54.00;;;;;;5010663;28;20878;-67
2023/06/03 09:47:11;;;;;;;9.30;6.23;;;22.40;55.50;;;;;;5010496;28;20437;-68
2023/06/03 09:49:40;;;;;;;10.50;7.60;;;22.50;57.20;;;;;;5010593;28;20473;-68
2023/06/03 09:52:31;;;;;;;9.50;7.23;;;22.90;54.60;;;;;;5010797;28;20441;-67
2023/06/03 09:55:02;;;;;;;6.73;6.20;;;22.90;54.70;;;;;;5010777;28;20982;-67
2023/06/03 09:57:31;;;;;;;10.60;6.70;;;23.10;55.70;;;;;;5010538;28;21125;-67
2023/06/03 10:00:10;;;;;;;12.07;6.67;;;23.60;53.50;;;;;;5010694;28;20472;-67
2023/06/03 10:02:39;;;;;;;10.67;7.30;;;24.40;51.90;;;;;;5010722;28;20999;-68
2023/06/03 10:05:26;;;;;;;7.93;6.60;;;24.50;51.00;;;;;;5011031;28;20507;-68
2023/06/03 10:07:54;;;;;;;8.50;6.93;;;24.90;52.10;;;;;;5011428;28;20446;-67
2023/06/03 10:10:23;;;;;;;7.33;6.73;;;25.10;49.90;;;;;;5010288;28;20458;-68
2023/06/03 10:12:52;;;;;;;7.67;6.93;;;25.10;52.30;;;;;;5009859;28;20552;-67
2023/06/03 10:15:35;;;;;;;7.33;6.60;;;25.50;49.00;;;;;;5010340;28;20493;-68
2023/06/03 10:18:04;;;;;;;7.60;6.90;;;25.60;49.00;;;;;;5010247;28;20559;-67
2023/06/03 10:20:34;;;;;;;7.30;6.60;;;25.60;49.20;;;;;;5010266;28;20552;-69
2023/06/03 10:23:03;;;;;;;8.20;6.80;;;25.60;50.60;;;;;;5009829;28;20445;-68
2023/06/03 10:25:33;;;;;;;8.23;6.83;;;26.30;48.60;;;;;;5010002;28;20448;-67
2023/06/03 10:28:03;;;;;;;7.20;6.40;;;26.60;47.60;;;;;;5010182;28;20489;-68
2023/06/03 10:30:31;;;;;;;9.53;7.47;;;26.40;46.90;;;;;;5010123;28;20938;-67
2023/06/03 10:33:03;;;;;;;8.70;7.80;;;26.40;45.90;;;;;;5009699;28;20465;-68
2023/06/03 10:35:32;;;;;;;8.20;7.37;;;26.30;46.40;;;;;;5010067;28;20813;-68
2023/06/03 10:38:02;;;;;;;7.00;6.30;;;26.30;48.10;;;;;;5009881;28;21047;-67
2023/06/03 10:40:31;;;;;;;8.57;6.93;;;26.20;48.40;;;;;;5010188;28;20512;-69
2023/06/03 10:42:59;;;;;;;7.57;6.40;;;26.40;49.50;;;;;;5009721;28;20521;-69
2023/06/03 10:45:29;;;;;;;8.30;6.60;;;26.80;48.10;;;;;;5009949;28;20441;-67
2023/06/03 10:48:00;;;;;;;8.47;7.20;;;27.20;47.00;;;;;;5010056;28;20508;-67
2023/06/03 10:50:41;;;;;;;8.23;6.50;;;27.40;44.60;;;;;;5010075;28;20462;-69
2023/06/03 10:53:20;;;;;;;7.83;6.20;;;27.80;45.80;;;;;;5009706;28;20445;-68
2023/06/03 10:56:03;;;;;;;10.93;7.10;;;27.60;46.00;;;;;;5009931;28;21274;-68
2023/06/03 10:58:32;;;;;;;8.40;7.20;;;28.00;44.00;;;;;;5009610;28;20528;-68
2023/06/03 11:01:02;;;;;;;7.37;6.67;;;28.60;42.90;;;;;;5013554;28;20450;-68
2023/06/03 11:03:32;;;;;;;6.67;6.10;;;29.40;44.10;;;;;;5013702;28;20939;-69
2023/06/03 11:06:34;;;;;;;7.70;6.60;;;30.10;43.10;;;;;;5014107;28;20453;-67
2023/06/03 11:09:05;;;;;;;6.80;6.10;;;28.30;42.50;;;;;;5013525;28;20552;-68
2023/06/03 11:11:58;;;;;;;7.60;6.90;;;28.40;42.30;;;;;;5014041;28;20434;-68
2023/06/03 11:14:54;;;;;;;8.13;6.50;;;29.10;44.00;;;;;;5013779;28;20437;-68
2023/06/03 11:17:25;;;;;;;6.90;6.20;;;30.40;43.30;;;;;;4989893;28;20829;-68
2023/06/03 11:19:55;;;;;;;8.73;6.97;;;31.10;40.80;;;;;;5013587;28;20461;-68
2023/06/03 11:22:44;;;;;;;7.37;6.63;;;31.20;39.70;;;;;;5013673;28;20480;-69
2023/06/03 11:25:29;;;;;;;7.63;6.40;;;30.60;40.20;;;;;;5013560;28;20448;-68
2023/06/03 11:28:35;;;;;;;6.97;6.30;;;30.80;40.60;;;;;;5013792;28;20529;-69
2023/06/03 11:31:06;;;;;;;6.73;6.13;;;31.30;37.00;;;;;;4993213;28;20540;-69
2023/06/03 11:33:36;;;;;;;7.53;5.80;;;31.90;36.80;;;;;;5013175;28;20445;-68
2023/06/03 11:36:57;;;;;;;8.70;6.80;;;31.90;36.10;;;;;;5013339;28;20445;-67
2023/06/03 11:39:25;;;;;;;8.10;7.40;;;30.60;37.50;;;;;;5013212;28;20488;-68
2023/06/03 11:42:08;;;;;;;7.90;7.03;;;28.70;38.60;;;;;;5013211;28;20492;-69
2023/06/03 11:44:38;;;;;;;8.60;7.80;;;27.40;42.70;;;;;;5012656;28;20478;-69
2023/06/03 11:47:07;;;;;;;8.20;6.13;;;27.10;45.30;;;;;;5013198;28;20450;-68
2023/06/03 11:49:38;;;;;;;7.27;6.57;;;28.30;44.90;;;;;;5012988;28;21160;-69
2023/06/03 11:52:07;;;;;;;6.70;6.10;;;29.80;43.20;;;;;;5013132;28;20442;-68
2023/06/03 11:54:36;;;;;;;9.87;7.00;;;31.00;41.00;;;;;;5012733;28;20536;-70
2023/06/03 11:57:05;;;;;;;6.70;6.10;;;32.50;38.50;;;;;;5012981;28;20442;-69
2023/06/03 11:59:36;;;;;;;7.47;6.43;;;33.00;34.80;;;;;;5012873;28;20485;-67
2023/06/03 12:02:05;;;;;;;6.80;6.10;;;33.30;36.40;;;;;;5012961;28;20490;-68
2023/06/03 12:04:36;;;;;;;7.60;6.47;;;31.20;35.90;;;;;;5012408;28;20488;-69
2023/06/03 12:07:10;;;;;;;9.07;8.07;;;29.00;37.70;;;;;;5012783;28;20445;-68
2023/06/03 12:09:38;;;;;;;7.33;6.63;;;27.50;42.00;;;;;;5012834;28;20552;-68
2023/06/03 12:12:08;;;;;;;8.60;6.93;;;26.40;41.90;;;;;;5012384;28;20441;-69
2023/06/03 12:14:38;;;;;;;9.20;6.80;;;26.70;45.30;;;;;;5012305;28;20889;-68
2023/06/03 12:17:13;;;;;;;7.67;6.97;;;28.50;40.80;;;;;;5012571;28;20446;-68
2023/06/03 12:19:44;;;;;;;7.43;6.70;;;29.30;41.50;;;;;;5012436;28;20859;-68
2023/06/03 12:22:13;;;;;;;7.70;7.00;;;28.70;41.20;;;;;;5012391;28;20445;-68
2023/06/03 12:24:43;;;;;;;8.00;7.20;;;28.00;40.00;;;;;;5012246;28;20484;-67
2023/06/03 12:27:12;;;;;;;10.10;7.87;;;27.20;41.30;;;;;;5012192;28;20496;-68
2023/06/03 12:29:44;;;;;;;8.63;6.97;;;27.30;42.30;;;;;;5012207;28;21056;-68
2023/06/03 12:32:13;;;;;;;8.50;7.63;;;27.50;41.50;;;;;;5012019;28;20468;-67
2023/06/03 12:34:44;;;;;;;7.90;7.10;;;28.10;42.40;;;;;;5011859;28;21083;-68
2023/06/03 12:37:13;;;;;;;7.70;6.90;;;28.60;41.10;;;;;;5012200;28;20461;-68
2023/06/03 12:39:44;;;;;;;7.90;7.20;;;29.50;41.50;;;;;;5012017;28;20559;-69
2023/06/03 12:42:12;;;;;;;8.10;6.30;;;31.20;40.00;;;;;;5011990;28;20443;-69
2023/06/03 12:44:49;;;;;;;8.70;7.43;;;32.70;36.10;;;;;;5011750;28;20449;-68
2023/06/03 12:47:18;;;;;;;7.53;6.30;;;32.50;32.60;;;;;;5011956;28;20453;-68
2023/06/03 12:50:05;;;;;;;7.50;6.80;;;31.50;34.90;;;;;;5012008;28;20489;-68
2023/06/03 12:52:34;;;;;;;7.17;6.60;;;31.60;35.70;;;;;;5011455;28;20434;-67
2023/06/03 12:55:03;;;;;;;7.37;6.57;;;31.10;36.80;;;;;;5011680;28;20440;-68
2023/06/03 12:57:32;;;;;;;7.23;5.80;;;30.40;36.70;;;;;;5011706;28;20951;-67
2023/06/03 13:00:04;;;;;;;7.27;6.57;;;30.60;40.40;;;;;;5011797;28;20485;-68
2023/06/03 13:02:32;;;;;;;7.03;6.33;;;31.40;33.50;;;;;;5011712;28;20450;-68